createdAt,value
2023-01-29T00:01:50.346Z,-1.51
2023-01-29T00:06:56.303Z,-1.52
2023-01-29T00:11:59.186Z,-1.54
2023-01-29T00:17:03.557Z,-1.47
2023-01-29T00:22:06.546Z,-1.53
2023-01-29T00:27:09.417Z,-1.51
2023-01-29T00:32:13.774Z,-1.54
2023-01-29T00:37:16.738Z,-1.49
2023-01-29T00:42:37.328Z,-1.43
2023-01-29T00:47:41.615Z,-1.55
2023-01-29T00:52:44.526Z,-1.82
2023-01-29T00:57:47.885Z,-1.56
2023-01-29T01:03:07.007Z,-1.49
2023-01-29T01:08:25.396Z,-1.56
2023-01-29T01:13:28.307Z,-1.51
2023-01-29T01:18:32.734Z,-1.51
2023-01-29T01:23:36.467Z,-1.57
2023-01-29T01:28:39.766Z,-1.62
2023-01-29T01:33:44.000Z,-1.63
2023-01-29T01:38:46.883Z,-1.71
2023-01-29T01:43:51.975Z,-1.67
2023-01-29T01:49:00.285Z,-1.73
2023-01-29T01:54:08.633Z,-1.64
2023-01-29T01:59:14.271Z,-1.61
2023-01-29T02:04:39.992Z,-1.73
2023-01-29T02:09:47.634Z,-1.69
2023-01-29T02:14:52.527Z,-1.83
2023-01-29T02:20:06.447Z,-1.81
2023-01-29T02:25:55.140Z,-1.96
2023-01-29T02:31:08.620Z,-1.90
2023-01-29T02:36:20.870Z,-2.01
2023-01-29T02:41:30.031Z,-2.08
2023-01-29T02:46:40.551Z,-2.09
2023-01-29T02:51:49.736Z,-2.22
2023-01-29T02:56:57.252Z,-2.18
2023-01-29T03:02:06.061Z,-2.22
2023-01-29T03:07:36.472Z,-2.34
2023-01-29T03:12:42.173Z,-2.34
2023-01-29T03:17:50.670Z,-2.39
2023-01-29T03:23:01.309Z,-2.49
2023-01-29T03:28:24.772Z,-2.53
2023-01-29T03:33:34.223Z,-2.62
2023-01-29T03:38:37.263Z,-2.53
2023-01-29T03:43:49.125Z,-2.81
2023-01-29T03:48:59.149Z,-2.68
2023-01-29T03:54:10.467Z,-2.87
2023-01-29T03:59:24.069Z,-2.82
2023-01-29T04:04:52.013Z,-2.82
2023-01-29T04:09:59.417Z,-2.72
2023-01-29T04:15:03.006Z,-2.94
2023-01-29T04:20:11.298Z,-2.96
2023-01-29T04:25:18.371Z,-2.90
2023-01-29T04:30:27.407Z,-3.24
2023-01-29T04:35:53.317Z,-3.18
2023-01-29T04:41:06.414Z,-3.19
2023-01-29T04:46:17.537Z,-3.21
2023-01-29T04:51:26.157Z,-3.29
2023-01-29T04:56:37.186Z,-3.17
2023-01-29T05:01:40.372Z,-3.08
2023-01-29T05:06:46.709Z,-3.33
2023-01-29T05:11:51.264Z,-3.22
2023-01-29T05:16:56.990Z,-3.42
2023-01-29T05:22:01.532Z,-3.24
2023-01-29T05:27:22.800Z,-3.17
2023-01-29T05:32:25.638Z,-3.29
2023-01-29T05:37:30.239Z,-3.32
2023-01-29T05:42:33.972Z,-3.34
2023-01-29T05:47:36.860Z,-3.54
2023-01-29T05:52:41.254Z,-3.35
2023-01-29T05:57:44.222Z,-3.41
2023-01-29T06:02:47.583Z,-3.36
2023-01-29T06:07:51.876Z,-3.29
2023-01-29T06:12:54.755Z,-3.26
2023-01-29T06:17:58.268Z,-3.51
2023-01-29T06:23:02.628Z,-3.71
2023-01-29T06:28:06.095Z,-3.60
2023-01-29T06:33:08.963Z,-3.44
2023-01-29T06:38:13.161Z,-3.33
2023-01-29T06:43:16.115Z,-3.46
2023-01-29T06:48:19.847Z,-3.18
2023-01-29T06:53:24.963Z,-3.23
2023-01-29T06:58:28.001Z,-3.06
2023-01-29T07:03:30.904Z,-3.12
2023-01-29T07:08:37.672Z,-2.95
2023-01-29T07:13:40.581Z,-2.98
2023-01-29T07:18:43.532Z,-2.89
2023-01-29T07:23:47.830Z,-2.89
2023-01-29T07:28:50.892Z,-2.93
2023-01-29T07:33:53.781Z,-2.75
2023-01-29T07:38:58.067Z,-2.68
2023-01-29T07:44:02.849Z,-2.62
2023-01-29T07:49:05.798Z,-2.61
2023-01-29T07:54:10.023Z,-2.55
2023-01-29T07:59:12.898Z,-2.55
2023-01-29T08:04:15.833Z,-2.39
2023-01-29T08:09:20.118Z,-2.17
2023-01-29T08:14:23.617Z,-2.35
2023-01-29T08:19:26.471Z,-2.10
2023-01-29T08:24:41.613Z,-1.99
2023-01-29T08:29:53.593Z,-1.91
2023-01-29T08:34:56.562Z,-1.67
2023-01-29T08:40:00.814Z,-1.92
2023-01-29T08:45:03.737Z,-1.77
2023-01-29T08:50:07.635Z,-1.65
2023-01-29T08:55:12.570Z,-1.56
2023-01-29T09:00:17.106Z,-1.48
2023-01-29T09:05:20.497Z,-1.68
2023-01-29T09:10:24.924Z,-1.38
2023-01-29T09:15:27.941Z,-1.25
2023-01-29T09:20:30.908Z,-1.17
2023-01-29T09:25:35.328Z,-1.17
2023-01-29T09:30:38.605Z,-0.90
2023-01-29T09:35:42.886Z,-0.71
2023-01-29T09:40:58.334Z,-0.69
2023-01-29T09:46:06.413Z,-0.75
2023-01-29T09:51:27.441Z,-1.01
2023-01-29T09:56:32.088Z,-0.54
2023-01-29T10:01:44.270Z,-0.27
2023-01-29T10:07:00.943Z,-0.31
2023-01-29T10:12:18.392Z,-0.37
2023-01-29T10:17:43.034Z,-0.48
2023-01-29T10:22:59.471Z,-0.13
2023-01-29T10:28:03.787Z,-0.09
2023-01-29T10:33:13.437Z,-0.00
2023-01-29T10:38:25.503Z,-0.07
2023-01-29T10:43:38.143Z,-0.43
2023-01-29T10:48:59.071Z,-0.04
2023-01-29T10:54:19.442Z,0.15
2023-01-29T10:59:40.578Z,0.17
2023-01-29T11:04:43.596Z,0.16
2023-01-29T11:09:54.713Z,0.35
2023-01-29T11:15:04.094Z,0.58
2023-01-29T11:20:26.464Z,0.64
2023-01-29T11:25:32.699Z,0.58
2023-01-29T11:30:39.765Z,0.56
2023-01-29T11:35:42.802Z,0.51
2023-01-29T11:40:46.668Z,0.43
2023-01-29T11:45:52.485Z,0.61
2023-01-29T11:51:00.649Z,0.85
2023-01-29T11:56:16.787Z,0.64
2023-01-29T12:01:34.694Z,1.09
2023-01-29T12:06:42.559Z,0.84
2023-01-29T12:11:45.607Z,0.81
2023-01-29T12:16:55.326Z,0.93
2023-01-29T12:22:03.975Z,1.01
2023-01-29T12:27:14.229Z,1.20
2023-01-29T12:32:28.971Z,1.11
2023-01-29T12:37:41.863Z,1.03
2023-01-29T12:42:49.181Z,1.26
2023-01-29T12:47:57.428Z,1.20
2023-01-29T12:53:03.574Z,1.18
2023-01-29T12:58:13.622Z,1.36
2023-01-29T13:03:22.779Z,1.43
2023-01-29T13:08:30.387Z,1.79
2023-01-29T13:13:38.159Z,1.98
2023-01-29T13:18:50.036Z,1.68
2023-01-29T13:23:55.907Z,2.06
2023-01-29T13:28:59.592Z,2.08
2023-01-29T13:34:10.992Z,2.14
2023-01-29T13:39:24.077Z,1.60
2023-01-29T13:44:30.222Z,1.53
2023-01-29T13:49:38.711Z,1.56
2023-01-29T13:54:42.567Z,1.48
2023-01-29T13:59:54.081Z,1.66
2023-01-29T14:05:47.352Z,1.44
2023-01-29T14:11:36.158Z,1.61
2023-01-29T14:16:39.361Z,0.97
2023-01-29T14:21:42.426Z,1.40
2023-01-29T14:26:49.401Z,1.38
2023-01-29T14:31:56.062Z,1.22
2023-01-29T14:37:03.173Z,1.31
2023-01-29T14:42:19.234Z,1.45
2023-01-29T14:47:43.530Z,1.47
2023-01-29T14:52:49.598Z,0.96
2023-01-29T14:57:57.947Z,0.98
2023-01-29T15:03:02.895Z,0.93
2023-01-29T15:08:15.110Z,0.67
2023-01-29T15:13:28.880Z,0.75
2023-01-29T15:18:39.819Z,0.78
2023-01-29T15:23:43.369Z,0.72
2023-01-29T15:29:03.343Z,0.75
2023-01-29T15:34:08.819Z,0.55
2023-01-29T15:39:17.237Z,0.53
2023-01-29T15:44:23.652Z,0.59
2023-01-29T15:49:32.048Z,0.52
2023-01-29T15:54:36.599Z,0.33
2023-01-29T15:59:45.998Z,0.43
2023-01-29T16:04:49.036Z,0.48
2023-01-29T16:09:53.745Z,0.42
2023-01-29T16:14:58.437Z,-0.19
2023-01-29T16:20:03.697Z,-0.05
2023-01-29T16:25:09.149Z,-0.20
2023-01-29T16:30:17.371Z,0.10
2023-01-29T16:35:20.767Z,0.16
2023-01-29T16:40:32.440Z,0.26
2023-01-29T16:45:36.787Z,0.34
2023-01-29T16:50:54.020Z,0.07
2023-01-29T16:56:03.718Z,0.08
2023-01-29T17:01:10.481Z,-0.06
2023-01-29T17:06:19.498Z,0.14
2023-01-29T17:11:31.138Z,0.00
2023-01-29T17:16:37.762Z,-0.20
2023-01-29T17:21:40.667Z,-0.04
2023-01-29T17:26:43.783Z,0.00
2023-01-29T17:31:48.194Z,-0.12
2023-01-29T17:36:51.109Z,0.02
2023-01-29T17:41:56.115Z,-0.02
2023-01-29T17:47:00.856Z,-0.06
2023-01-29T17:52:04.742Z,-0.08
2023-01-29T17:57:07.630Z,-0.20
2023-01-29T18:02:29.189Z,-0.04
2023-01-29T18:07:32.989Z,-0.28
2023-01-29T18:12:35.833Z,-0.24
2023-01-29T18:17:40.785Z,-0.41
2023-01-29T18:22:43.740Z,-0.38
2023-01-29T18:27:46.757Z,-0.46
2023-01-29T18:32:51.329Z,-0.35
2023-01-29T18:37:54.270Z,-0.33
2023-01-29T18:42:59.696Z,-0.38
2023-01-29T18:48:04.086Z,-0.46
2023-01-29T18:53:07.680Z,-0.59
2023-01-29T18:58:33.638Z,-0.63
2023-01-29T19:03:34.914Z,-0.69
2023-01-29T19:08:37.873Z,-0.68
2023-01-29T19:13:42.530Z,-0.55
2023-01-29T19:18:46.864Z,-0.70
2023-01-29T19:23:49.822Z,-0.59
2023-01-29T19:28:52.844Z,-0.73
2023-01-29T19:33:57.242Z,-0.86
2023-01-29T19:39:00.157Z,-1.02
2023-01-29T19:44:03.301Z,-0.96
2023-01-29T19:49:10.233Z,-1.09
2023-01-29T19:54:13.386Z,-0.91
2023-01-29T19:59:16.242Z,-1.05
2023-01-29T20:04:20.653Z,-1.16
2023-01-29T20:09:23.691Z,-1.05
2023-01-29T20:14:26.727Z,-0.97
2023-01-29T20:19:31.049Z,-1.24
2023-01-29T20:24:39.049Z,-1.06
2023-01-29T20:29:43.679Z,-1.24
2023-01-29T20:34:52.068Z,-1.38
2023-01-29T20:39:55.190Z,-1.47
2023-01-29T20:44:58.182Z,-1.70
2023-01-29T20:50:08.444Z,-1.84
2023-01-29T20:55:13.488Z,-1.81
2023-01-29T21:00:17.585Z,-1.90
2023-01-29T21:05:22.146Z,-1.95
2023-01-29T21:10:25.251Z,-1.99
2023-01-29T21:15:28.333Z,-2.30
2023-01-29T21:20:32.900Z,-2.33
2023-01-29T21:25:36.077Z,-2.20
2023-01-29T21:30:39.104Z,-2.29
2023-01-29T21:35:43.391Z,-2.31
2023-01-29T21:40:46.342Z,-2.27
2023-01-29T21:45:56.451Z,-2.20
2023-01-29T21:51:00.777Z,-2.14
2023-01-29T21:56:05.916Z,-2.23
2023-01-29T22:01:35.126Z,-2.05
2023-01-29T22:06:33.117Z,-2.11
2023-01-29T22:11:35.999Z,-2.13
2023-01-29T22:16:38.990Z,-2.12
2023-01-29T22:21:43.319Z,-2.04
2023-01-29T22:26:47.851Z,-1.98
2023-01-29T22:31:51.441Z,-1.85
2023-01-29T22:36:55.690Z,-1.83
2023-01-29T22:41:58.550Z,-1.85
2023-01-29T22:47:01.934Z,-1.81
2023-01-29T22:52:12.287Z,-1.76
2023-01-29T22:57:16.484Z,-1.74
2023-01-29T23:02:19.369Z,-1.93
2023-01-29T23:07:23.694Z,-1.90
2023-01-29T23:12:26.605Z,-1.76
2023-01-29T23:17:29.522Z,-2.00
2023-01-29T23:22:33.782Z,-1.91
2023-01-29T23:27:36.681Z,-1.85
2023-01-29T23:32:39.568Z,-1.76
2023-01-29T23:37:43.828Z,-1.80
2023-01-29T23:42:49.049Z,-1.68
2023-01-29T23:47:51.912Z,-1.54
2023-01-29T23:52:56.122Z,-1.58
2023-01-29T23:57:58.964Z,-1.69
